Time;durP1;ratioP1;P1;durP2;ratioP2;P2;SDS_P1;SDS_P2;PMS_P1;PMS_P2;Temp;Humidity;BMP_temperature;BMP_pressure;BME280_temperature;BME280_humidity;BME280_pressure;Samples;Min_cycle;Max_cycle;Signal;HPM_P1;HPM_P2
2023/01/10 00:00:56;;;;;;;96.90;44.30;;;;;;;;;;4958122;28;20226;-46
2023/01/10 00:03:26;;;;;;;136.00;51.70;;;;;;;;;;4959202;28;20211;-47
2023/01/10 00:05:53;;;;;;;131.03;49.57;;;;;;;;;;4959159;28;20211;-48
2023/01/10 00:08:20;;;;;;;101.63;41.37;;;;;;;;;;4958778;28;20600;-45
2023/01/10 00:10:47;;;;;;;172.38;60.30;;;;;;;;;;4974066;28;20351;-46
2023/01/10 00:13:25;;;;;;;148.03;54.60;;;;;;;;;;4958891;28;20218;-46
2023/01/10 00:15:54;;;;;;;136.10;48.13;;;;;;;;;;4958771;28;20207;-45
2023/01/10 00:18:22;;;;;;;68.73;30.17;;;;;;;;;;4958724;28;20282;-45
2023/01/10 00:20:49;;;;;;;60.87;32.63;;;;;;;;;;4958895;28;20204;-46
2023/01/10 00:23:17;;;;;;;113.67;37.03;;;;;;;;;;4958933;28;20223;-47
2023/01/10 00:25:44;;;;;;;115.40;72.47;;;;;;;;;;4958636;28;20648;-45
2023/01/10 00:31:00;;;;;;;57.37;28.93;;;;;;;;;;4958751;28;20206;-46
2023/01/10 00:33:33;;;;;;;62.53;26.70;;;;;;;;;;4958414;28;20258;-45
2023/01/10 00:36:01;;;;;;;106.93;37.20;;;;;;;;;;4958491;28;20668;-45
2023/01/10 00:38:29;;;;;;;59.77;26.10;;;;;;;;;;4958269;28;20515;-45
2023/01/10 00:40:57;;;;;;;57.67;26.13;;;;;;;;;;4958530;28;20227;-45
2023/01/10 00:46:10;;;;;;;50.20;23.83;;;;;;;;;;4958201;28;20621;-45
2023/01/10 00:48:37;;;;;;;93.20;47.30;;;;;;;;;;4958290;28;20215;-46
2023/01/10 00:51:05;;;;;;;74.57;34.80;;;;;;;;;;4958214;28;20273;-45
2023/01/10 00:53:32;;;;;;;99.07;46.57;;;;;;;;;;4958054;28;20247;-46
2023/01/10 00:55:59;;;;;;;73.43;40.50;;;;;;;;;;4957940;28;20655;-45
2023/01/10 00:58:26;;;;;;;73.77;39.87;;;;;;;;;;4957894;28;20211;-46
2023/01/10 01:00:53;;;;;;;74.60;34.93;;;;;;;;;;4957857;28;20521;-45
2023/01/10 01:03:22;;;;;;;60.30;27.30;;;;;;;;;;4957962;28;20212;-47
2023/01/10 01:05:49;;;;;;;79.13;32.77;;;;;;;;;;4958102;28;20203;-45
2023/01/10 01:08:17;;;;;;;61.97;28.08;;;;;;;;;;4957829;28;20211;-47
2023/01/10 01:10:45;;;;;;;54.70;25.13;;;;;;;;;;4957210;28;20695;-46
2023/01/10 01:13:18;;;;;;;56.23;27.70;;;;;;;;;;4957407;28;20219;-46
2023/01/10 01:15:45;;;;;;;44.80;23.67;;;;;;;;;;4957897;28;20203;-45
2023/01/10 01:18:15;;;;;;;65.40;34.92;;;;;;;;;;4957707;28;20227;-45
2023/01/10 01:20:44;;;;;;;45.17;24.10;;;;;;;;;;4957857;28;20218;-46
2023/01/10 01:23:12;;;;;;;57.05;30.98;;;;;;;;;;4957768;28;20214;-47
2023/01/10 01:25:40;;;;;;;88.53;46.77;;;;;;;;;;4957371;28;20215;-45
2023/01/10 01:28:09;;;;;;;73.90;35.17;;;;;;;;;;4957666;28;20207;-46
2023/01/10 01:30:36;;;;;;;105.95;35.63;;;;;;;;;;4957307;28;20723;-46
2023/01/10 01:33:03;;;;;;;93.90;35.80;;;;;;;;;;4957397;28;20219;-45
2023/01/10 01:35:32;;;;;;;73.43;31.47;;;;;;;;;;4957501;28;20211;-46
2023/01/10 01:37:59;;;;;;;55.80;26.70;;;;;;;;;;4957048;28;20223;-45
2023/01/10 01:40:26;;;;;;;51.87;26.03;;;;;;;;;;4957386;28;20286;-47
2023/01/10 01:42:56;;;;;;;52.90;25.27;;;;;;;;;;4956442;28;20258;-46
2023/01/10 01:45:23;;;;;;;73.77;40.37;;;;;;;;;;4957130;28;20644;-45
2023/01/10 01:47:58;;;;;;;113.80;44.13;;;;;;;;;;4957121;28;20266;-45
2023/01/10 01:50:33;;;;;;;120.77;45.53;;;;;;;;;;4956187;29;20222;-45
2023/01/10 01:53:05;;;;;;;43.93;28.67;;;;;;;;;;4956099;29;20223;-47
2023/01/10 01:55:33;;;;;;;75.20;40.13;;;;;;;;;;4956248;29;20399;-45
2023/01/10 01:58:03;;;;;;;119.50;42.00;;;;;;;;;;4956021;29;20543;-48
2023/01/10 02:00:31;;;;;;;94.53;34.10;;;;;;;;;;4956994;28;20210;-47
2023/01/10 02:02:59;;;;;;;55.77;27.00;;;;;;;;;;4955829;29;20203;-46
2023/01/10 02:05:31;;;;;;;69.33;28.97;;;;;;;;;;4957078;28;20202;-46
2023/01/10 02:08:00;;;;;;;51.33;25.80;;;;;;;;;;4956809;28;20227;-46
2023/01/10 02:10:40;;;;;;;53.60;26.63;;;;;;;;;;4956741;28;20258;-46
2023/01/10 02:13:08;;;;;;;109.13;52.93;;;;;;;;;;4956731;28;20207;-46
2023/01/10 02:15:35;;;;;;;88.30;42.87;;;;;;;;;;4956506;28;20219;-45
2023/01/10 02:18:03;;;;;;;74.20;32.97;;;;;;;;;;4956619;28;20231;-46
2023/01/10 02:21:04;;;;;;;67.60;41.40;;;;;;;;;;4955522;29;20625;-45
2023/01/10 02:24:25;;;;;;;43.57;27.57;;;;;;;;;;4955473;28;20206;-48
2023/01/10 02:27:20;;;;;;;62.83;29.63;;;;;;;;;;4954636;29;20210;-46
2023/01/10 02:30:12;;;;;;;59.63;26.93;;;;;;;;;;4956231;28;20325;-45
2023/01/10 02:32:56;;;;;;;65.93;28.53;;;;;;;;;;4956549;28;20207;-46
2023/01/10 02:35:37;;;;;;;46.33;25.10;;;;;;;;;;4956401;28;20211;-48
2023/01/10 02:38:10;;;;;;;46.90;25.60;;;;;;;;;;4956158;28;20695;-45
2023/01/10 02:40:43;;;;;;;47.00;24.53;;;;;;;;;;4956443;28;20534;-47
2023/01/10 02:43:13;;;;;;;84.23;41.10;;;;;;;;;;4956446;28;20254;-49
2023/01/10 02:45:52;;;;;;;111.07;44.73;;;;;;;;;;4955998;28;20640;-45
2023/01/10 02:48:20;;;;;;;96.30;37.67;;;;;;;;;;4955471;29;20195;-45
2023/01/10 02:51:04;;;;;;;62.93;34.60;;;;;;;;;;4956040;28;20213;-45
2023/01/10 02:53:34;;;;;;;39.53;25.40;;;;;;;;;;4955174;29;20322;-44
2023/01/10 02:56:28;;;;;;;48.10;24.90;;;;;;;;;;4956286;28;20258;-49
2023/01/10 02:59:31;;;;;;;52.70;25.83;;;;;;;;;;4956433;28;20239;-48
2023/01/10 03:02:01;;;;;;;48.37;25.93;;;;;;;;;;4954208;28;20211;-44
2023/01/10 03:04:28;;;;;;;49.30;26.13;;;;;;;;;;4956048;28;20207;-44
2023/01/10 03:07:04;;;;;;;40.27;23.13;;;;;;;;;;4955888;28;20211;-45
2023/01/10 03:09:39;;;;;;;41.97;24.40;;;;;;;;;;4955273;29;20202;-45
2023/01/10 03:12:20;;;;;;;61.87;33.23;;;;;;;;;;4955276;29;20227;-44
2023/01/10 03:14:48;;;;;;;69.33;34.90;;;;;;;;;;4956231;28;20207;-45
2023/01/10 03:17:16;;;;;;;204.90;70.77;;;;;;;;;;4954889;29;20224;-44
2023/01/10 03:19:47;;;;;;;109.60;65.80;;;;;;;;;;4954883;29;20211;-45
2023/01/10 03:22:14;;;;;;;60.80;39.33;;;;;;;;;;4955694;28;20211;-44
2023/01/10 03:24:45;;;;;;;47.13;29.27;;;;;;;;;;4955657;28;20281;-46
2023/01/10 03:27:24;;;;;;;51.57;27.00;;;;;;;;;;4955030;29;20211;-45
2023/01/10 03:30:00;;;;;;;52.37;25.80;;;;;;;;;;4955784;28;20214;-49
2023/01/10 03:32:29;;;;;;;52.90;28.17;;;;;;;;;;4954779;29;20729;-46
2023/01/10 03:34:58;;;;;;;39.03;23.10;;;;;;;;;;4956773;28;20219;-45
2023/01/10 03:37:43;;;;;;;39.90;23.43;;;;;;;;;;4958699;29;20570;-44
2023/01/10 03:40:26;;;;;;;41.23;22.37;;;;;;;;;;4959930;28;20607;-44
2023/01/10 03:45:47;;;;;;;40.80;23.53;;;;;;;;;;4958558;29;20564;-46
2023/01/10 03:48:15;;;;;;;65.57;29.73;;;;;;;;;;4959385;28;20207;-45
2023/01/10 03:50:43;;;;;;;41.50;25.00;;;;;;;;;;4958476;29;20256;-45
2023/01/10 03:53:11;;;;;;;38.37;23.10;;;;;;;;;;4959034;28;20204;-45
2023/01/10 03:55:40;;;;;;;43.50;24.90;;;;;;;;;;4959116;28;20586;-46
2023/01/10 03:58:07;;;;;;;47.57;25.53;;;;;;;;;;4959185;28;20231;-45
2023/01/10 04:00:35;;;;;;;46.67;25.27;;;;;;;;;;4959293;28;20214;-46
2023/01/10 04:03:02;;;;;;;49.93;27.03;;;;;;;;;;4958947;28;20663;-46
2023/01/10 04:05:29;;;;;;;55.83;29.57;;;;;;;;;;4959216;28;20211;-45
2023/01/10 04:07:56;;;;;;;49.83;25.90;;;;;;;;;;4958900;28;20223;-46
2023/01/10 04:10:25;;;;;;;90.27;46.77;;;;;;;;;;4959116;28;20212;-45
2023/01/10 04:12:52;;;;;;;123.87;50.57;;;;;;;;;;4958680;28;20641;-45
2023/01/10 04:15:20;;;;;;;173.50;52.43;;;;;;;;;;4958765;28;20663;-45
2023/01/10 04:17:47;;;;;;;149.77;98.93;;;;;;;;;;4958733;28;20223;-47
2023/01/10 04:20:15;;;;;;;48.33;32.00;;;;;;;;;;4958648;28;20637;-45
2023/01/10 04:22:45;;;;;;;40.17;25.60;;;;;;;;;;4958570;28;20211;-46
2023/01/10 04:25:12;;;;;;;46.77;26.20;;;;;;;;;;4958884;28;20211;-46
2023/01/10 04:27:39;;;;;;;49.73;27.10;;;;;;;;;;4958544;28;20266;-46
2023/01/10 04:30:07;;;;;;;47.97;27.00;;;;;;;;;;4958639;28;20230;-47
2023/01/10 04:32:34;;;;;;;45.33;25.20;;;;;;;;;;4958448;28;20203;-45
2023/01/10 04:35:01;;;;;;;44.10;25.75;;;;;;;;;;4958342;28;20675;-46
2023/01/10 04:37:28;;;;;;;44.20;25.30;;;;;;;;;;4958519;28;20242;-46
2023/01/10 04:39:55;;;;;;;58.03;29.83;;;;;;;;;;4958306;28;20211;-46
2023/01/10 04:42:22;;;;;;;58.60;31.33;;;;;;;;;;4958368;28;20207;-45
2023/01/10 04:44:50;;;;;;;50.77;26.83;;;;;;;;;;4958371;28;20211;-46
2023/01/10 04:47:17;;;;;;;48.90;33.77;;;;;;;;;;4958041;28;20207;-47
2023/01/10 04:49:44;;;;;;;46.13;27.60;;;;;;;;;;4958110;28;20603;-48
2023/01/10 04:52:11;;;;;;;50.20;26.93;;;;;;;;;;4958338;28;20270;-46
2023/01/10 04:54:39;;;;;;;86.87;33.40;;;;;;;;;;4958054;28;20703;-45
2023/01/10 04:57:06;;;;;;;63.77;30.53;;;;;;;;;;4958051;28;20599;-47
2023/01/10 04:59:33;;;;;;;57.33;30.23;;;;;;;;;;4964533;28;20254;-46
2023/01/10 05:02:00;;;;;;;66.37;32.00;;;;;;;;;;4976760;28;20222;-44
2023/01/10 05:04:27;;;;;;;53.60;27.73;;;;;;;;;;4975208;28;20241;-46
2023/01/10 05:06:54;;;;;;;50.67;27.57;;;;;;;;;;4976444;28;22456;-45
2023/01/10 05:09:21;;;;;;;75.15;39.83;;;;;;;;;;4966003;28;20235;-46
2023/01/10 05:11:48;;;;;;;69.97;34.73;;;;;;;;;;4969037;28;20684;-46
2023/01/10 05:14:16;;;;;;;70.13;33.07;;;;;;;;;;4970039;28;20226;-45
2023/01/10 05:16:43;;;;;;;69.70;41.30;;;;;;;;;;4976156;28;20230;-45
2023/01/10 05:19:11;;;;;;;46.00;32.00;;;;;;;;;;4976151;28;20703;-47
2023/01/10 05:21:38;;;;;;;57.57;33.60;;;;;;;;;;4976281;28;20246;-45
2023/01/10 05:24:05;;;;;;;75.70;32.90;;;;;;;;;;4976372;28;20310;-47
2023/01/10 05:26:32;;;;;;;65.33;30.57;;;;;;;;;;4976186;28;20329;-45
2023/01/10 05:28:59;;;;;;;66.70;31.17;;;;;;;;;;4975899;28;20531;-45
2023/01/10 05:31:26;;;;;;;52.33;29.47;;;;;;;;;;4974939;28;20225;-46
2023/01/10 05:33:54;;;;;;;49.33;28.30;;;;;;;;;;4975381;28;20562;-45
2023/01/10 05:36:21;;;;;;;54.07;30.17;;;;;;;;;;4975210;28;20241;-46
2023/01/10 05:38:48;;;;;;;78.43;35.57;;;;;;;;;;4974983;28;20230;-45
2023/01/10 05:41:15;;;;;;;86.70;41.97;;;;;;;;;;4973575;28;20277;-44
2023/01/10 05:43:42;;;;;;;135.07;46.63;;;;;;;;;;4975505;28;20694;-46
2023/01/10 05:46:10;;;;;;;203.57;100.60;;;;;;;;;;4975445;28;20761;-47
2023/01/10 05:48:37;;;;;;;69.13;49.07;;;;;;;;;;4974609;28;20691;-47
2023/01/10 05:51:04;;;;;;;74.27;45.00;;;;;;;;;;4974123;28;20237;-45
2023/01/10 05:53:32;;;;;;;76.40;37.73;;;;;;;;;;4974813;28;20257;-49
2023/01/10 05:56:00;;;;;;;76.07;34.53;;;;;;;;;;4974140;28;20230;-48
2023/01/10 05:58:28;;;;;;;69.67;33.73;;;;;;;;;;4972545;28;20242;-48
2023/01/10 06:00:56;;;;;;;84.20;37.50;;;;;;;;;;4973745;28;20223;-46
2023/01/10 06:03:25;;;;;;;70.57;33.77;;;;;;;;;;4973488;28;20694;-47
2023/01/10 06:05:53;;;;;;;54.33;31.07;;;;;;;;;;4973510;28;20234;-46
2023/01/10 06:08:21;;;;;;;53.63;29.47;;;;;;;;;;4973681;28;20269;-49
2023/01/10 06:10:49;;;;;;;126.47;64.50;;;;;;;;;;4973551;28;20235;-48
2023/01/10 06:13:16;;;;;;;103.57;43.00;;;;;;;;;;4974665;28;20261;-48
2023/01/10 06:15:43;;;;;;;115.90;40.33;;;;;;;;;;4975163;28;20235;-45
2023/01/10 06:18:11;;;;;;;96.47;57.37;;;;;;;;;;4974624;28;20297;-49
2023/01/10 06:20:39;;;;;;;53.80;34.00;;;;;;;;;;4975179;28;20223;-45
2023/01/10 06:23:06;;;;;;;67.27;39.90;;;;;;;;;;4974669;28;20281;-48
2023/01/10 06:25:35;;;;;;;102.57;40.70;;;;;;;;;;4974640;28;20257;-47
2023/01/10 06:28:03;;;;;;;65.67;31.73;;;;;;;;;;4974702;28;20239;-46
2023/01/10 06:30:30;;;;;;;54.13;29.43;;;;;;;;;;4974761;28;20223;-45
2023/01/10 06:33:01;;;;;;;54.57;28.60;;;;;;;;;;4974703;28;20230;-46
2023/01/10 06:35:28;;;;;;;51.43;29.43;;;;;;;;;;4973894;28;20680;-46
2023/01/10 06:37:56;;;;;;;53.00;32.13;;;;;;;;;;4974217;28;20230;-45
2023/01/10 06:40:23;;;;;;;51.37;30.87;;;;;;;;;;4975130;28;20219;-47
2023/01/10 06:42:51;;;;;;;58.23;35.27;;;;;;;;;;4974947;28;20207;-47
2023/01/10 06:45:18;;;;;;;60.40;31.67;;;;;;;;;;4975163;28;20210;-44
2023/01/10 06:47:45;;;;;;;47.77;29.40;;;;;;;;;;4975329;28;20207;-49
2023/01/10 06:50:13;;;;;;;44.27;27.67;;;;;;;;;;4975154;28;20245;-45
2023/01/10 06:52:40;;;;;;;43.00;27.30;;;;;;;;;;4974999;28;20202;-45
2023/01/10 06:55:08;;;;;;;46.73;30.70;;;;;;;;;;4974901;28;20238;-45
2023/01/10 06:57:37;;;;;;;49.37;29.13;;;;;;;;;;4973964;28;20218;-46
2023/01/10 07:00:05;;;;;;;46.40;28.40;;;;;;;;;;4973511;28;20715;-47
2023/01/10 07:02:33;;;;;;;47.00;28.83;;;;;;;;;;4974812;28;20229;-45
2023/01/10 07:05:00;;;;;;;44.67;28.67;;;;;;;;;;4974993;28;20234;-45
2023/01/10 07:07:27;;;;;;;46.13;27.80;;;;;;;;;;4974751;28;20362;-46
2023/01/10 07:09:54;;;;;;;43.43;28.43;;;;;;;;;;4973689;28;20210;-48
2023/01/10 07:12:22;;;;;;;44.97;27.37;;;;;;;;;;4973519;28;20207;-45
2023/01/10 07:14:49;;;;;;;50.17;29.80;;;;;;;;;;4974625;28;20257;-45
2023/01/10 07:17:16;;;;;;;43.80;27.63;;;;;;;;;;4974604;28;20520;-46
2023/01/10 07:19:43;;;;;;;48.70;28.33;;;;;;;;;;4974971;28;20294;-45
2023/01/10 07:22:11;;;;;;;46.97;28.67;;;;;;;;;;4974956;28;20207;-50
2023/01/10 07:24:38;;;;;;;47.77;29.13;;;;;;;;;;4974954;28;20655;-45
2023/01/10 07:27:05;;;;;;;50.50;29.83;;;;;;;;;;4975047;28;20583;-45
2023/01/10 07:29:32;;;;;;;50.63;28.13;;;;;;;;;;4974749;28;20281;-46
2023/01/10 07:31:59;;;;;;;50.13;28.60;;;;;;;;;;4974698;28;20203;-45
2023/01/10 07:34:26;;;;;;;42.67;27.53;;;;;;;;;;4974792;28;20550;-46
2023/01/10 07:36:53;;;;;;;43.00;27.77;;;;;;;;;;4974428;28;20214;-45
2023/01/10 07:39:20;;;;;;;47.67;28.53;;;;;;;;;;4974465;28;20230;-46
2023/01/10 07:41:48;;;;;;;45.43;27.60;;;;;;;;;;4974757;28;20206;-47
2023/01/10 07:44:15;;;;;;;42.57;27.60;;;;;;;;;;4974431;28;20258;-45
2023/01/10 07:46:42;;;;;;;47.37;29.57;;;;;;;;;;4974648;28;20515;-45
2023/01/10 07:49:09;;;;;;;43.27;27.77;;;;;;;;;;4974414;28;20214;-46
2023/01/10 07:51:37;;;;;;;46.53;28.60;;;;;;;;;;4974279;28;20207;-46
2023/01/10 07:54:04;;;;;;;47.03;29.03;;;;;;;;;;4974318;28;20242;-45
2023/01/10 07:56:31;;;;;;;48.67;29.57;;;;;;;;;;4974379;28;20258;-46
2023/01/10 07:59:00;;;;;;;51.17;29.20;;;;;;;;;;4974540;28;20318;-45
2023/01/10 08:01:28;;;;;;;47.20;28.93;;;;;;;;;;4974411;28;20656;-46
2023/01/10 08:03:57;;;;;;;46.63;29.50;;;;;;;;;;4974482;28;20211;-46
2023/01/10 08:06:24;;;;;;;46.13;28.63;;;;;;;;;;4973833;28;20211;-46
2023/01/10 08:08:51;;;;;;;48.50;29.20;;;;;;;;;;4973336;28;20206;-48
2023/01/10 08:11:18;;;;;;;46.87;28.87;;;;;;;;;;4974324;28;20277;-45
2023/01/10 08:13:45;;;;;;;48.67;29.63;;;;;;;;;;4973752;28;20215;-47
2023/01/10 08:16:14;;;;;;;52.03;30.83;;;;;;;;;;4973985;28;20202;-45
2023/01/10 08:18:42;;;;;;;52.33;31.63;;;;;;;;;;4974150;28;20679;-47
2023/01/10 08:21:09;;;;;;;52.22;32.20;;;;;;;;;;4975526;28;20238;-45
2023/01/10 08:23:36;;;;;;;69.63;44.23;;;;;;;;;;4977688;28;20203;-47
2023/01/10 08:26:04;;;;;;;139.93;102.07;;;;;;;;;;4978202;28;20244;-45
2023/01/10 08:28:32;;;;;;;67.57;45.15;;;;;;;;;;4977398;28;20656;-46
2023/01/10 08:31:04;;;;;;;59.07;39.60;;;;;;;;;;4976360;28;20273;-46
2023/01/10 08:33:31;;;;;;;42.13;27.30;;;;;;;;;;4976161;28;20241;-46
2023/01/10 08:35:59;;;;;;;44.30;29.07;;;;;;;;;;4976489;28;20214;-46
2023/01/10 08:38:27;;;;;;;41.33;26.97;;;;;;;;;;4976587;28;20234;-45
2023/01/10 08:40:57;;;;;;;46.00;28.30;;;;;;;;;;4977554;28;20647;-45
2023/01/10 08:43:24;;;;;;;46.87;29.40;;;;;;;;;;4976948;28;20273;-46
2023/01/10 08:45:51;;;;;;;41.50;25.97;;;;;;;;;;4977356;28;20199;-46
2023/01/10 08:48:19;;;;;;;43.30;27.85;;;;;;;;;;4977671;28;20207;-45
2023/01/10 08:50:46;;;;;;;50.63;29.77;;;;;;;;;;4977668;28;20273;-48
2023/01/10 08:53:13;;;;;;;46.23;30.40;;;;;;;;;;4976407;28;20679;-45
2023/01/10 08:55:40;;;;;;;41.10;26.37;;;;;;;;;;4976391;28;20233;-46
2023/01/10 08:58:08;;;;;;;44.67;27.97;;;;;;;;;;4977351;28;20210;-45
2023/01/10 09:00:35;;;;;;;38.57;24.53;;;;;;;;;;4975638;28;20756;-45
2023/01/10 09:03:05;;;;;;;37.93;23.80;;;;;;;;;;4977373;28;20281;-45
2023/01/10 09:05:32;;;;;;;58.50;37.97;;;;;;;;;;4977193;28;20675;-45
2023/01/10 09:08:01;;;;;;;37.57;23.93;;;;;;;;;;4977172;28;20589;-45
2023/01/10 09:10:29;;;;;;;37.63;24.10;;;;;;;;;;4977148;28;20195;-46
2023/01/10 09:13:00;;;;;;;39.08;24.05;;;;;;;;;;4977157;28;20281;-45
2023/01/10 09:15:30;;;;;;;35.80;24.17;;;;;;;;;;4976231;28;20211;-46
2023/01/10 09:18:00;;;;;;;40.93;24.77;;;;;;;;;;4977082;28;20222;-46
2023/01/10 09:20:28;;;;;;;39.10;24.20;;;;;;;;;;4975930;28;20241;-46
2023/01/10 09:22:55;;;;;;;38.80;25.67;;;;;;;;;;4976173;28;20289;-46
2023/01/10 09:25:23;;;;;;;42.53;25.03;;;;;;;;;;4976536;28;20536;-45
2023/01/10 09:27:58;;;;;;;42.30;26.87;;;;;;;;;;4977094;28;20237;-46
2023/01/10 09:30:27;;;;;;;41.87;25.83;;;;;;;;;;4975684;28;20214;-45
2023/01/10 09:32:55;;;;;;;40.47;26.77;;;;;;;;;;4975507;28;20639;-46
2023/01/10 09:35:24;;;;;;;52.17;29.77;;;;;;;;;;4976551;28;20526;-45
2023/01/10 09:37:56;;;;;;;54.00;31.53;;;;;;;;;;4976848;28;20226;-46
2023/01/10 09:40:29;;;;;;;76.00;37.10;;;;;;;;;;4976434;28;20214;-45
2023/01/10 09:43:09;;;;;;;89.23;44.97;;;;;;;;;;4976471;28;20692;-47
2023/01/10 09:45:47;;;;;;;92.73;43.00;;;;;;;;;;4976357;28;20268;-45
2023/01/10 09:48:19;;;;;;;81.90;42.40;;;;;;;;;;4974312;28;20206;-48
2023/01/10 09:51:02;;;;;;;87.60;41.83;;;;;;;;;;4976037;28;20214;-49
2023/01/10 09:53:31;;;;;;;66.27;36.20;;;;;;;;;;4976255;28;20278;-45
2023/01/10 09:55:59;;;;;;;73.47;37.70;;;;;;;;;;4974595;28;20648;-45
2023/01/10 09:58:29;;;;;;;48.00;30.83;;;;;;;;;;4967638;28;20231;-46
2023/01/10 10:01:17;;;;;;;53.00;33.03;;;;;;;;;;4956378;28;20192;-47
2023/01/10 10:03:57;;;;;;;55.23;32.77;;;;;;;;;;4955182;29;20517;-45
2023/01/10 10:06:25;;;;;;;56.90;33.35;;;;;;;;;;4956735;28;20203;-47
2023/01/10 10:08:52;;;;;;;58.57;34.67;;;;;;;;;;4956089;28;20598;-46
2023/01/10 10:11:25;;;;;;;62.33;35.20;;;;;;;;;;4956612;28;20211;-45
2023/01/10 10:14:14;;;;;;;61.87;35.33;;;;;;;;;;4956848;28;20223;-46
2023/01/10 10:17:13;;;;;;;64.57;38.10;;;;;;;;;;4956150;28;20203;-48
2023/01/10 10:19:55;;;;;;;67.80;35.00;;;;;;;;;;4955704;28;20290;-45
2023/01/10 10:22:41;;;;;;;58.50;32.08;;;;;;;;;;4955724;29;20207;-45
2023/01/10 10:25:30;;;;;;;55.45;32.55;;;;;;;;;;4956409;28;20238;-45
2023/01/10 10:28:06;;;;;;;60.50;32.55;;;;;;;;;;4956019;28;20239;-45
2023/01/10 10:30:41;;;;;;;72.60;34.40;;;;;;;;;;4955782;28;20195;-45
2023/01/10 10:33:30;;;;;;;56.60;33.13;;;;;;;;;;4956446;28;20274;-45
2023/01/10 10:36:03;;;;;;;51.53;31.63;;;;;;;;;;4955553;28;20238;-47
2023/01/10 10:38:37;;;;;;;55.38;33.75;;;;;;;;;;4954597;29;20204;-46
2023/01/10 10:41:24;;;;;;;37.63;24.43;;;;;;;;;;4954852;28;20584;-46
2023/01/10 10:43:51;;;;;;;42.63;26.17;;;;;;;;;;4937755;29;20240;-48
2023/01/10 10:46:18;;;;;;;44.17;25.73;;;;;;;;;;4955851;28;20365;-45
2023/01/10 10:49:13;;;;;;;36.30;23.60;;;;;;;;;;4955383;29;20211;-46
2023/01/10 10:51:46;;;;;;;34.13;22.90;;;;;;;;;;4955264;29;20286;-45
2023/01/10 10:54:15;;;;;;;33.50;22.40;;;;;;;;;;4956109;28;20249;-45
2023/01/10 10:56:43;;;;;;;36.27;22.93;;;;;;;;;;4954351;29;20625;-47
2023/01/10 10:59:18;;;;;;;36.93;22.30;;;;;;;;;;4955095;29;20551;-45
2023/01/10 11:01:47;;;;;;;31.77;20.73;;;;;;;;;;4955407;29;20191;-45
2023/01/10 11:04:18;;;;;;;31.50;21.00;;;;;;;;;;4954250;29;20234;-48
2023/01/10 11:06:49;;;;;;;35.07;21.17;;;;;;;;;;4953649;29;20199;-46
2023/01/10 11:09:23;;;;;;;32.00;21.08;;;;;;;;;;4955460;28;20223;-46
2023/01/10 11:11:51;;;;;;;32.47;20.73;;;;;;;;;;4955793;28;20648;-45
2023/01/10 11:14:39;;;;;;;29.30;20.93;;;;;;;;;;4955696;28;20208;-46
2023/01/10 11:17:21;;;;;;;30.10;20.52;;;;;;;;;;4955877;28;20589;-49
2023/01/10 11:19:59;;;;;;;31.83;19.63;;;;;;;;;;4955519;28;20223;-45
2023/01/10 11:22:28;;;;;;;30.48;20.52;;;;;;;;;;4954915;28;20206;-47
2023/01/10 11:25:00;;;;;;;31.85;20.05;;;;;;;;;;4954144;29;20211;-45
2023/01/10 11:27:45;;;;;;;28.80;19.63;;;;;;;;;;4955622;28;20192;-48
2023/01/10 11:30:18;;;;;;;27.55;19.42;;;;;;;;;;4954967;29;20215;-46
2023/01/10 11:32:54;;;;;;;31.38;19.10;;;;;;;;;;4955558;28;20522;-47
2023/01/10 11:35:25;;;;;;;34.40;21.55;;;;;;;;;;4955189;28;20277;-45
2023/01/10 11:38:03;;;;;;;44.35;26.92;;;;;;;;;;4954866;29;20199;-45
2023/01/10 11:40:32;;;;;;;37.33;24.87;;;;;;;;;;4955340;28;20246;-45
2023/01/10 11:42:59;;;;;;;45.53;28.13;;;;;;;;;;4955539;28;20637;-46
2023/01/10 11:45:30;;;;;;;40.33;26.50;;;;;;;;;;4953932;29;20541;-48
2023/01/10 11:48:43;;;;;;;48.73;27.30;;;;;;;;;;4955008;28;20192;-47
2023/01/10 11:51:43;;;;;;;50.90;29.92;;;;;;;;;;4953111;29;20214;-47
2023/01/10 11:54:20;;;;;;;81.43;41.10;;;;;;;;;;4952490;29;20250;-46
2023/01/10 11:57:07;;;;;;;82.18;49.47;;;;;;;;;;4956092;28;20206;-45
2023/01/10 11:59:34;;;;;;;49.50;31.67;;;;;;;;;;4941165;29;20692;-45
2023/01/10 12:02:35;;;;;;;53.70;27.07;;;;;;;;;;4955529;29;20211;-47
2023/01/10 12:05:05;;;;;;;41.60;23.90;;;;;;;;;;4883892;29;20298;-46
2023/01/10 12:07:57;;;;;;;44.00;23.57;;;;;;;;;;4883577;29;20209;-47
2023/01/10 12:10:27;;;;;;;36.80;19.50;;;;;;;;;;4898715;29;20538;-46
2023/01/10 12:12:57;;;;;;;32.33;19.50;;;;;;;;;;4898698;29;20209;-45
2023/01/10 12:15:28;;;;;;;30.85;18.65;;;;;;;;;;4898638;29;20205;-46
2023/01/10 12:17:58;;;;;;;57.03;32.50;;;;;;;;;;4897913;29;20217;-45
2023/01/10 12:20:30;;;;;;;33.87;20.23;;;;;;;;;;4899385;29;20240;-45
2023/01/10 12:23:04;;;;;;;47.33;22.27;;;;;;;;;;4898753;29;20726;-45
2023/01/10 12:25:35;;;;;;;55.40;26.90;;;;;;;;;;4883336;29;20209;-48
2023/01/10 12:28:03;;;;;;;65.03;27.70;;;;;;;;;;4898569;29;20284;-46
2023/01/10 12:30:33;;;;;;;37.70;20.57;;;;;;;;;;4899181;29;20210;-48
2023/01/10 12:33:05;;;;;;;31.23;20.00;;;;;;;;;;4883493;29;20220;-46
2023/01/10 12:35:41;;;;;;;32.63;18.80;;;;;;;;;;4899719;29;20208;-46
2023/01/10 12:39:01;;;;;;;36.97;18.90;;;;;;;;;;4882768;29;20229;-47
2023/01/10 12:44:09;;;;;;;209.17;81.07;;;;;;;;;;4939449;29;20235;-46
2023/01/10 12:44:11;;;;;;;213.97;88.47;;;;;;;;;;4956757;29;20610;-47
2023/01/10 12:46:44;;;;;;;219.07;91.00;;;;;;;;;;4958366;28;20191;-46
2023/01/10 12:49:35;;;;;;;285.67;119.80;;;;;;;;;;4957351;29;20215;-47
2023/01/10 12:52:05;;;;;;;279.03;122.40;;;;;;;;;;4957189;29;20587;-50
2023/01/10 12:54:32;;;;;;;160.13;75.03;;;;;;;;;;4957850;28;20622;-48
2023/01/10 12:57:05;;;;;;;170.67;71.57;;;;;;;;;;4958323;28;20203;-46
2023/01/10 12:59:39;;;;;;;158.13;64.17;;;;;;;;;;4957058;29;20656;-46
2023/01/10 13:02:15;;;;;;;197.83;71.43;;;;;;;;;;4957152;29;20259;-45
2023/01/10 13:04:45;;;;;;;129.60;48.33;;;;;;;;;;4973079;28;20202;-47
2023/01/10 13:07:13;;;;;;;199.73;66.27;;;;;;;;;;4976751;28;20632;-47
2023/01/10 13:09:41;;;;;;;299.08;92.55;;;;;;;;;;4976814;28;20702;-47
2023/01/10 13:12:21;;;;;;;122.35;41.92;;;;;;;;;;4977350;28;20543;-47
2023/01/10 13:14:50;;;;;;;159.10;51.57;;;;;;;;;;4975883;28;20191;-47
2023/01/10 13:17:39;;;;;;;163.87;52.17;;;;;;;;;;4976328;28;20207;-47
2023/01/10 13:20:16;;;;;;;171.37;57.00;;;;;;;;;;4975879;28;20726;-47
2023/01/10 13:22:46;;;;;;;173.00;56.57;;;;;;;;;;4976207;28;20197;-50
2023/01/10 13:25:23;;;;;;;264.30;82.07;;;;;;;;;;4967200;28;20202;-51
2023/01/10 13:28:17;;;;;;;279.97;82.67;;;;;;;;;;4976667;28;20616;-46
2023/01/10 13:30:52;;;;;;;217.80;58.83;;;;;;;;;;4976619;28;20195;-48
2023/01/10 13:33:22;;;;;;;149.93;42.73;;;;;;;;;;4976688;28;20190;-49
2023/01/10 13:35:52;;;;;;;193.33;65.90;;;;;;;;;;4976302;28;20202;-48
2023/01/10 13:38:26;;;;;;;320.83;83.37;;;;;;;;;;4975900;28;20273;-48
2023/01/10 13:41:06;;;;;;;128.73;41.03;;;;;;;;;;4972246;28;20207;-49
2023/01/10 13:43:39;;;;;;;152.03;42.93;;;;;;;;;;4971635;28;20620;-48
2023/01/10 13:46:15;;;;;;;160.63;45.83;;;;;;;;;;4966510;28;20199;-50
2023/01/10 13:48:48;;;;;;;246.03;68.13;;;;;;;;;;4975554;28;20202;-49
2023/01/10 13:51:18;;;;;;;189.27;58.33;;;;;;;;;;4976127;28;20203;-51
2023/01/10 13:53:50;;;;;;;154.90;49.13;;;;;;;;;;4975516;28;20270;-52
2023/01/10 13:56:30;;;;;;;187.80;58.80;;;;;;;;;;4974361;28;20609;-48
2023/01/10 14:04:55;;;;;;;251.30;67.00;;;;;;;;;;4968605;28;20637;-49
2023/01/10 14:07:32;;;;;;;200.43;56.60;;;;;;;;;;4975231;28;20230;-48
2023/01/10 14:10:08;;;;;;;168.75;51.95;;;;;;;;;;4974146;28;20230;-51
2023/01/10 14:12:52;;;;;;;151.20;58.60;;;;;;;;;;4969064;28;20285;-47
2023/01/10 14:15:26;;;;;;;149.80;49.30;;;;;;;;;;4956701;28;20223;-49
2023/01/10 14:18:20;;;;;;;96.03;34.13;;;;;;;;;;4972285;28;20281;-46
2023/01/10 14:21:05;;;;;;;104.87;35.43;;;;;;;;;;4959966;28;20304;-49
2023/01/10 14:23:39;;;;;;;62.27;22.20;;;;;;;;;;4973197;28;20222;-51
2023/01/10 14:26:15;;;;;;;71.80;25.20;;;;;;;;;;4973167;28;20829;-46
2023/01/10 14:28:42;;;;;;;87.67;32.17;;;;;;;;;;4974497;28;20538;-48
2023/01/10 14:31:18;;;;;;;107.67;35.17;;;;;;;;;;4965860;28;20223;-44
2023/01/10 14:33:45;;;;;;;88.03;32.90;;;;;;;;;;4979616;28;20253;-49
2023/01/10 14:36:23;;;;;;;75.07;29.13;;;;;;;;;;4966894;28;20303;-47
2023/01/10 14:38:55;;;;;;;99.33;38.43;;;;;;;;;;4952741;28;20521;-45
2023/01/10 14:41:36;;;;;;;85.67;32.77;;;;;;;;;;4972904;28;20325;-47
2023/01/10 14:44:14;;;;;;;63.73;27.07;;;;;;;;;;4976111;28;20282;-50
2023/01/10 14:46:46;;;;;;;62.43;27.23;;;;;;;;;;4970678;28;20296;-51
2023/01/10 14:49:27;;;;;;;73.87;37.40;;;;;;;;;;4969447;28;20564;-48
2023/01/10 14:51:59;;;;;;;81.43;56.83;;;;;;;;;;4970932;28;20705;-46
2023/01/10 14:54:28;;;;;;;45.73;19.93;;;;;;;;;;4971960;28;20316;-47